Time;durP1;ratioP1;P1;durP2;ratioP2;P2;SDS_P1;SDS_P2;PMS_P1;PMS_P2;Temp;Humidity;BMP_temperature;BMP_pressure;BME280_temperature;BME280_humidity;BME280_pressure;Samples;Min_cycle;Max_cycle;Signal;HPM_P1;HPM_P2
2021/05/09 05:01:01;;;;;;;2.40;2.20;;;;;;;-142.70;100.00;60390.16;5568880;24;20151;-76
2021/05/09 05:03:31;;;;;;;3.13;2.60;;;;;;;-142.70;100.00;60390.16;4740230;30;20039;-76
2021/05/09 05:05:56;;;;;;;2.58;2.35;;;;;;;-142.70;100.00;60390.16;4750201;30;20510;-78
2021/05/09 05:08:22;;;;;;;2.83;2.63;;;;;;;-142.70;100.00;60390.16;4734235;30;20047;-77
2021/05/09 05:10:49;;;;;;;3.78;2.67;;;;;;;-142.70;100.00;60390.16;4735622;30;20032;-77
2021/05/09 05:13:26;;;;;;;3.15;2.10;;;;;;;-142.70;100.00;60390.16;4748355;30;20510;-77
2021/05/09 05:15:52;;;;;;;2.40;2.10;;;;;;;-142.70;100.00;60390.16;4735646;30;20027;-77
2021/05/09 05:18:21;;;;;;;2.25;1.90;;;;;;;-142.70;100.00;60390.16;4748827;30;20028;-78
2021/05/09 05:20:46;;;;;;;;;;;;;;;-142.70;100.00;60390.16;4749573;30;20054;-77
2021/05/09 05:23:12;;;;;;;5.60;2.15;;;;;;;-142.70;100.00;60390.16;4735247;30;20384;-78
2021/05/09 05:25:37;;;;;;;2.80;2.05;;;;;;;-142.70;100.00;60390.16;4733826;30;20034;-76
2021/05/09 05:28:03;;;;;;;7.72;2.28;;;;;;;-142.70;100.00;60390.16;4734438;30;20039;-77
2021/05/09 05:30:29;;;;;;;2.35;1.88;;;;;;;-142.70;100.00;60390.16;4733772;30;20042;-77
2021/05/09 05:32:54;;;;;;;2.20;2.00;;;;;;;-142.70;100.00;60390.16;4720775;30;20035;-77
2021/05/09 05:35:20;;;;;;;1.58;1.48;;;;;;;-142.70;100.00;60390.16;4748912;30;20120;-77
2021/05/09 05:37:45;;;;;;;2.60;2.08;;;;;;;-142.70;100.00;60390.16;4749280;30;20106;-78
2021/05/09 05:40:11;;;;;;;2.10;1.98;;;;;;;-142.70;100.00;60390.16;4747764;30;20036;-78
2021/05/09 05:42:37;;;;;;;1.80;1.70;;;;;;;-142.70;100.00;60390.16;4742158;30;20043;-78
2021/05/09 05:45:04;;;;;;;2.00;1.80;;;;;;;-142.70;100.00;60390.16;4720909;30;20035;-78
2021/05/09 05:47:30;;;;;;;1.80;1.70;;;;;;;-142.70;100.00;60390.16;4730409;30;20040;-78
2021/05/09 05:49:56;;;;;;;3.92;2.00;;;;;;;-142.70;100.00;60390.16;4717032;30;20671;-79
2021/05/09 05:52:22;;;;;;;2.10;1.60;;;;;;;-142.70;100.00;60390.16;4715059;30;20596;-77
2021/05/09 05:54:47;;;;;;;2.15;1.90;;;;;;;-142.70;100.00;60390.16;4731972;30;20043;-78
2021/05/09 05:57:13;;;;;;;2.20;2.00;;;;;;;-142.70;100.00;60390.16;4747003;30;20037;-78
2021/05/09 05:59:38;;;;;;;3.55;1.77;;;;;;;-142.70;100.00;60390.16;4730145;30;20036;-78
2021/05/09 06:02:04;;;;;;;2.35;2.15;;;;;;;-142.70;100.00;60390.16;4729606;30;20051;-78
2021/05/09 06:04:29;;;;;;;1.85;1.75;;;;;;;-142.70;100.00;60390.16;4718730;30;20048;-77
2021/05/09 06:06:54;;;;;;;2.00;1.90;;;;;;;-142.70;100.00;60390.16;4749288;30;20028;-78
2021/05/09 06:09:20;;;;;;;2.90;1.55;;;;;;;-142.70;100.00;60390.16;4733000;30;20422;-78
2021/05/09 06:11:45;;;;;;;4.30;1.95;;;;;;;-142.70;100.00;60390.16;4749395;30;20047;-78
2021/05/09 06:14:11;;;;;;;3.13;2.10;;;;;;;-142.70;100.00;60390.16;4733597;30;20431;-78
2021/05/09 06:16:36;;;;;;;2.20;2.10;;;;;;;-142.70;100.00;60390.16;4748582;30;20035;-77
2021/05/09 06:19:02;;;;;;;2.72;2.47;;;;;;;-142.70;100.00;60390.16;4734308;30;20043;-78
2021/05/09 06:21:28;;;;;;;2.80;2.60;;;;;;;-142.70;100.00;60390.16;4733750;30;20031;-77
2021/05/09 06:23:53;;;;;;;3.58;2.85;;;;;;;-142.70;100.00;60390.16;4734382;30;20387;-78
2021/05/09 06:26:19;;;;;;;3.33;2.13;;;;;;;-142.70;100.00;60390.16;4747633;30;20525;-78
2021/05/09 06:28:44;;;;;;;2.72;2.40;;;;;;;-142.70;100.00;60390.16;4719900;30;20093;-77
2021/05/09 06:31:10;;;;;;;3.47;2.60;;;;;;;-142.70;100.00;60390.16;4718627;30;20095;-78
2021/05/09 06:33:35;;;;;;;2.17;2.03;;;;;;;-142.70;100.00;60390.16;4734402;30;20035;-78
2021/05/09 06:36:01;;;;;;;2.38;2.17;;;;;;;-142.70;100.00;60390.16;4733688;30;20036;-78
2021/05/09 06:38:26;;;;;;;2.40;2.20;;;;;;;-142.70;100.00;60390.16;4733684;30;20048;-78
2021/05/09 06:40:52;;;;;;;2.20;2.00;;;;;;;-142.70;100.00;60390.16;4767809;30;20062;-78
2021/05/09 06:43:18;;;;;;;2.58;2.40;;;;;;;-142.70;100.00;60390.16;4750673;30;20046;-77
2021/05/09 06:45:47;;;;;;;1.90;1.80;;;;;;;-142.70;100.00;60390.16;4766238;30;20097;-77
2021/05/09 06:48:12;;;;;;;4.53;1.70;;;;;;;-142.70;100.00;60390.16;4732842;30;20039;-77
2021/05/09 06:50:38;;;;;;;3.60;1.95;;;;;;;-142.70;100.00;60390.16;4751008;30;20446;-77
2021/05/09 06:53:06;;;;;;;3.97;2.00;;;;;;;-142.70;100.00;60390.16;4704723;30;20062;-76
2021/05/09 06:55:31;;;;;;;1.73;1.63;;;;;;;-142.70;100.00;60390.16;4734870;30;20147;-78
2021/05/09 06:57:57;;;;;;;2.25;2.05;;;;;;;-142.70;100.00;60390.16;4704861;30;20138;-77
2021/05/09 07:00:23;;;;;;;3.10;1.65;;;;;;;-142.70;100.00;60390.16;4718442;30;20064;-76
2021/05/09 07:02:48;;;;;;;3.63;2.00;;;;;;;-142.70;100.00;60390.16;4734470;30;20127;-76
2021/05/09 07:05:14;;;;;;;2.60;1.55;;;;;;;-142.70;100.00;60390.16;4733532;30;20105;-78
2021/05/09 07:07:55;;;;;;;2.15;1.90;;;;;;;-142.70;100.00;60390.16;4720047;30;20064;-82
2021/05/09 07:10:22;;;;;;;4.38;2.00;;;;;;;-142.70;100.00;60390.16;4719204;30;20136;-77
2021/05/09 07:12:47;;;;;;;1.25;1.15;;;;;;;-142.70;100.00;60390.16;4719567;30;20043;-79
2021/05/09 07:15:16;;;;;;;4.35;1.63;;;;;;;-142.70;100.00;60390.16;4734045;30;20411;-78
2021/05/09 07:17:45;;;;;;;1.75;1.42;;;;;;;-142.70;100.00;60390.16;4718238;30;20040;-80
2021/05/09 07:20:10;;;;;;;2.20;1.50;;;;;;;-142.70;100.00;60390.16;4720277;30;20427;-78
2021/05/09 07:22:40;;;;;;;2.35;1.30;;;;;;;-142.70;100.00;60390.16;4703495;30;20043;-77
2021/05/09 07:25:06;;;;;;;1.50;1.40;;;;;;;-142.70;100.00;60390.16;4720341;30;20101;-76
2021/05/09 07:27:32;;;;;;;1.33;1.23;;;;;;;-142.70;100.00;60390.16;4732909;30;20028;-77
2021/05/09 07:29:57;;;;;;;4.00;1.35;;;;;;;-142.70;100.00;60390.16;4719527;30;20036;-77
2021/05/09 07:32:23;;;;;;;3.13;1.30;;;;;;;-142.70;100.00;60390.16;4703886;30;20074;-77
2021/05/09 07:34:48;;;;;;;1.65;1.45;;;;;;;-142.70;100.00;60390.16;4733321;30;20028;-77
2021/05/09 07:37:14;;;;;;;1.50;1.40;;;;;;;-142.70;100.00;60390.16;4733950;30;20039;-77
2021/05/09 07:39:39;;;;;;;1.50;0.90;;;;;;;-142.70;100.00;60390.16;4732918;30;20040;-77
2021/05/09 07:42:05;;;;;;;2.70;1.40;;;;;;;-142.70;100.00;60390.16;4718915;30;20066;-76
2021/05/09 07:44:30;;;;;;;2.33;1.02;;;;;;;-142.70;100.00;60390.16;4718285;30;20428;-80
2021/05/09 07:46:56;;;;;;;1.27;1.17;;;;;;;-142.70;100.00;60390.16;4719231;30;20045;-78
2021/05/09 07:49:22;;;;;;;1.35;1.25;;;;;;;-142.70;100.00;60390.16;4733172;30;20039;-79
2021/05/09 07:51:47;;;;;;;6.65;1.10;;;;;;;-142.70;100.00;60390.16;4748576;30;20032;-78
2021/05/09 07:54:13;;;;;;;1.13;1.00;;;;;;;-142.70;100.00;60390.16;4718789;30;20032;-79
2021/05/09 07:56:38;;;;;;;1.95;1.00;;;;;;;-142.70;100.00;60390.16;4748311;30;20544;-78
2021/05/09 07:59:04;;;;;;;2.42;1.10;;;;;;;-142.70;100.00;60390.16;4719195;30;20039;-78
2021/05/09 08:01:29;;;;;;;2.10;0.75;;;;;;;-142.70;100.00;60390.16;4717320;30;20044;-79
2021/05/09 08:03:55;;;;;;;1.92;1.20;;;;;;;-142.70;100.00;60390.16;4733497;30;20058;-76
2021/05/09 08:06:21;;;;;;;2.17;1.05;;;;;;;-142.70;100.00;60390.16;4733765;30;20085;-77
2021/05/09 08:08:46;;;;;;;1.30;0.80;;;;;;;-142.70;100.00;60390.16;4763873;30;20490;-76
2021/05/09 08:11:12;;;;;;;0.68;0.68;;;;;;;-142.70;100.00;60390.16;4748781;30;20028;-77
2021/05/09 08:13:38;;;;;;;1.48;0.80;;;;;;;-142.70;100.00;60390.16;4733558;30;20387;-75
2021/05/09 08:16:04;;;;;;;2.45;1.02;;;;;;;-142.70;100.00;60390.16;4720197;30;20043;-76
2021/05/09 08:18:31;;;;;;;1.40;0.80;;;;;;;-142.70;100.00;60390.16;4762861;30;20109;-76
2021/05/09 08:20:57;;;;;;;0.90;0.52;;;;;;;-142.70;100.00;60390.16;4744366;30;20109;-76
2021/05/09 08:23:22;;;;;;;0.70;0.40;;;;;;;-142.70;100.00;60390.16;4734461;30;20031;-78
2021/05/09 08:25:48;;;;;;;1.48;0.52;;;;;;;-142.70;100.00;60390.16;4751201;30;20586;-77
2021/05/09 08:28:14;;;;;;;0.77;0.60;;;;;;;18.02;29.55;95511.66;4749742;30;20036;-77
2021/05/09 08:30:39;;;;;;;1.05;0.60;;;;;;;18.67;29.11;95504.72;4721381;30;20031;-76
2021/05/09 08:33:05;;;;;;;3.95;0.70;;;;;;;18.55;29.46;95516.88;4735413;30;20396;-74
2021/05/09 08:35:30;;;;;;;1.17;0.60;;;;;;;18.47;29.62;95514.41;4749960;30;20035;-77
2021/05/09 08:37:56;;;;;;;0.73;0.50;;;;;;;19.36;29.58;95512.69;4751170;30;20028;-75
2021/05/09 08:40:22;;;;;;;0.63;0.45;;;;;;;18.19;29.56;95510.25;4734492;30;20078;-75
2021/05/09 08:42:49;;;;;;;2.42;0.70;;;;;;;19.04;29.79;95511.03;4734985;30;20035;-75
2021/05/09 08:45:15;;;;;;;1.45;0.40;;;;;;;18.88;27.93;95520.97;4734194;30;20039;-75
2021/05/09 08:47:41;;;;;;;0.73;0.50;;;;;;;18.24;27.87;95504.38;4736113;30;20071;-75
2021/05/09 08:50:17;;;;;;;0.73;0.55;;;;;;;18.14;28.01;95509.25;4735198;30;20059;-74
2021/05/09 08:52:44;;;;;;;1.27;0.57;;;;;;;18.27;28.24;95515.25;4731928;30;20032;-75
2021/05/09 08:55:11;;;;;;;1.10;0.35;;;;;;;19.43;29.83;95518.72;4746132;30;20048;-75
2021/05/09 08:57:40;;;;;;;0.40;0.40;;;;;;;19.24;28.15;95523.06;4733314;30;20512;-76
2021/05/09 09:00:07;;;;;;;1.02;0.40;;;;;;;19.35;28.07;95521.59;4746651;30;20434;-75
2021/05/09 09:02:32;;;;;;;0.50;0.50;;;;;;;18.65;29.34;95519.88;4720776;30;20472;-75
2021/05/09 09:04:58;;;;;;;0.55;0.55;;;;;;;19.07;27.73;95527.16;4732881;30;20101;-76
2021/05/09 09:07:23;;;;;;;0.57;0.40;;;;;;;18.30;29.43;95516.69;4733992;30;20107;-76
2021/05/09 09:09:52;;;;;;;0.80;0.60;;;;;;;18.34;28.23;95507.38;4727528;30;20122;-74
2021/05/09 09:12:18;;;;;;;1.02;0.40;;;;;;;18.28;29.13;95513.44;4733021;30;20598;-74
2021/05/09 09:14:57;;;;;;;0.77;0.50;;;;;;;18.32;29.56;95518.09;4718556;30;20528;-75
2021/05/09 09:17:23;;;;;;;1.83;0.50;;;;;;;18.92;29.08;95513.50;4732913;30;20048;-76
2021/05/09 09:20:18;;;;;;;0.98;0.43;;;;;;;18.21;28.87;95515.25;4740334;30;20527;-74
2021/05/09 09:22:50;;;;;;;1.60;0.60;;;;;;;18.38;29.56;95501.53;4747486;30;20032;-78
2021/05/09 09:25:16;;;;;;;3.90;0.50;;;;;;;18.26;29.23;95505.78;4748420;30;20111;-73
2021/05/09 09:27:46;;;;;;;0.98;0.63;;;;;;;18.53;29.13;95503.13;4743867;30;20055;-75
2021/05/09 09:30:12;;;;;;;1.77;0.50;;;;;;;17.85;29.32;95510.47;4732092;30;20054;-79
2021/05/09 09:32:37;;;;;;;0.75;0.50;;;;;;;18.41;29.58;95510.81;4745786;30;20063;-74
2021/05/09 09:35:03;;;;;;;1.70;0.50;;;;;;;18.44;28.99;95505.97;4740231;30;20445;-75
2021/05/09 09:37:33;;;;;;;0.50;0.30;;;;;;;18.76;29.63;95506.09;4746369;30;20163;-76
2021/05/09 09:39:59;;;;;;;0.95;0.40;;;;;;;19.00;29.33;95508.03;4739198;30;20040;-74
2021/05/09 09:42:41;;;;;;;1.67;0.50;;;;;;;18.93;29.54;95510.69;4745629;30;20058;-74
2021/05/09 09:45:16;;;;;;;1.48;0.50;;;;;;;18.84;30.42;95516.38;4737582;30;20467;-74
2021/05/09 09:47:48;;;;;;;1.15;0.60;;;;;;;18.38;29.65;95501.53;4754409;30;20139;-74
2021/05/09 09:50:35;;;;;;;0.88;0.38;;;;;;;18.80;28.61;95504.66;4741790;30;20396;-75
2021/05/09 09:53:01;;;;;;;0.60;0.50;;;;;;;19.20;28.70;95511.34;4747385;30;20028;-75
2021/05/09 09:55:26;;;;;;;4.88;0.65;;;;;;;18.73;28.48;95511.75;4731804;30;20478;-76
2021/05/09 09:58:04;;;;;;;3.25;0.73;;;;;;;18.57;29.49;95504.34;4737600;30;20032;-78
2021/05/09 10:00:30;;;;;;;6.97;0.50;;;;;;;18.41;29.77;95498.50;4732233;30;20708;-76
2021/05/09 10:02:55;;;;;;;1.92;0.50;;;;;;;18.94;29.47;95507.03;4721671;30;20063;-76
2021/05/09 10:05:21;;;;;;;0.80;0.57;;;;;;;18.66;29.20;95513.59;4737608;30;20635;-75
2021/05/09 10:07:47;;;;;;;2.75;0.77;;;;;;;18.74;29.91;95506.31;4722323;30;20515;-78
2021/05/09 10:10:12;;;;;;;2.40;0.93;;;;;;;19.32;30.72;95498.38;4722716;30;20028;-74
2021/05/09 10:12:38;;;;;;;0.60;0.60;;;;;;;18.68;29.25;95506.34;4722044;30;20418;-74
2021/05/09 10:15:05;;;;;;;1.85;0.60;;;;;;;18.78;30.11;95502.25;4752142;30;20039;-75
2021/05/09 10:17:30;;;;;;;0.40;0.40;;;;;;;18.99;31.18;95502.97;4713841;30;20047;-75
2021/05/09 10:19:55;;;;;;;5.10;0.65;;;;;;;18.37;30.63;95494.66;4716342;30;20039;-73
2021/05/09 10:22:32;;;;;;;5.40;0.70;;;;;;;18.81;31.85;95512.34;4711037;30;20039;-75
2021/05/09 10:24:58;;;;;;;2.45;0.70;;;;;;;19.40;31.72;95509.47;4747277;30;20051;-74
2021/05/09 10:27:40;;;;;;;1.60;1.02;;;;;;;18.44;31.80;95513.81;4730376;30;20036;-73
2021/05/09 10:30:11;;;;;;;0.95;0.47;;;;;;;18.77;32.18;95521.66;4745327;30;20093;-73
2021/05/09 10:32:37;;;;;;;0.95;0.57;;;;;;;18.95;30.77;95513.09;4725581;30;20099;-75
2021/05/09 10:35:03;;;;;;;1.65;0.60;;;;;;;18.57;29.43;95506.97;4754736;30;20027;-73
2021/05/09 10:40:28;;;;;;;0.60;0.57;;;;;;;19.45;31.63;95486.00;4763684;30;20043;-74
2021/05/09 10:43:07;;;;;;;0.50;0.40;;;;;;;19.01;30.05;95501.75;4747417;30;20042;-75
2021/05/09 10:45:35;;;;;;;1.23;0.68;;;;;;;18.75;29.23;95504.50;4746600;30;20101;-74
2021/05/09 10:48:13;;;;;;;3.53;0.60;;;;;;;19.13;29.99;95502.72;4763406;30;20032;-74
2021/05/09 10:50:39;;;;;;;0.70;0.63;;;;;;;19.56;30.00;95495.00;4762947;30;20036;-72
2021/05/09 10:53:04;;;;;;;2.08;0.60;;;;;;;19.56;28.33;95494.19;4747793;30;20489;-74
2021/05/09 10:55:36;;;;;;;2.33;0.60;;;;;;;19.66;30.26;95489.28;4747102;30;20046;-75
2021/05/09 10:58:05;;;;;;;0.77;0.60;;;;;;;19.20;30.35;95476.41;4747016;30;20082;-75
2021/05/09 11:01:00;;;;;;;0.60;0.60;;;;;;;19.85;29.86;95483.88;4733142;30;20038;-74
2021/05/09 11:03:34;;;;;;;1.77;0.80;;;;;;;19.13;28.86;95486.97;4746936;30;20044;-74
2021/05/09 11:06:11;;;;;;;0.73;0.60;;;;;;;19.65;28.40;95477.16;4763739;30;20043;-74
2021/05/09 11:08:43;;;;;;;0.47;0.43;;;;;;;19.35;31.76;95476.94;4731979;30;20036;-75
2021/05/09 11:11:30;;;;;;;0.50;0.50;;;;;;;19.60;29.90;95477.78;4746998;30;20528;-73
2021/05/09 11:13:58;;;;;;;2.25;0.40;;;;;;;18.90;30.64;95476.16;4763162;30;20138;-74
2021/05/09 11:16:24;;;;;;;2.25;0.55;;;;;;;19.46;31.53;95471.00;4746286;30;20039;-74
2021/05/09 11:19:03;;;;;;;0.65;0.65;;;;;;;19.70;31.47;95464.19;4762987;30;20039;-75
2021/05/09 11:21:32;;;;;;;1.02;0.70;;;;;;;19.08;30.25;95471.00;4728816;30;20036;-74
2021/05/09 11:24:02;;;;;;;1.50;0.80;;;;;;;18.93;30.29;95471.31;4717038;30;20066;-74
2021/05/09 11:26:32;;;;;;;3.25;0.55;;;;;;;19.37;30.62;95474.88;4732962;30;20043;-73
2021/05/09 11:29:07;;;;;;;0.80;0.40;;;;;;;19.42;29.52;95467.22;4765671;30;20139;-74
2021/05/09 11:31:34;;;;;;;3.95;1.00;;;;;;;19.58;29.67;95466.69;4766565;30;20039;-75
2021/05/09 11:34:00;;;;;;;2.35;0.60;;;;;;;19.31;29.90;95452.91;4765514;30;20040;-74
2021/05/09 11:36:30;;;;;;;1.00;0.50;;;;;;;19.42;29.51;95452.22;4735711;30;20024;-74
2021/05/09 11:39:13;;;;;;;1.27;0.70;;;;;;;19.58;30.95;95445.69;4749667;30;20074;-76
2021/05/09 11:41:58;;;;;;;0.32;0.32;;;;;;;19.56;29.25;95446.88;4735026;30;20128;-74
2021/05/09 11:44:27;;;;;;;0.47;0.43;;;;;;;19.66;29.74;95444.59;4749950;30;20122;-74
2021/05/09 11:46:53;;;;;;;0.52;0.50;;;;;;;19.36;30.14;95447.81;4749051;30;20039;-74
2021/05/09 11:49:21;;;;;;;1.05;0.73;;;;;;;19.74;29.76;95412.78;4735741;30;20118;-74
2021/05/09 11:51:53;;;;;;;1.80;0.50;;;;;;;19.84;30.21;95447.28;4765158;30;20060;-74
2021/05/09 11:54:20;;;;;;;1.58;1.25;;;;;;;19.48;30.52;95445.34;4749473;30;20031;-79
2021/05/09 11:56:50;;;;;;;0.70;0.55;;;;;;;19.06;29.72;95444.16;4735072;30;20055;-75
2021/05/09 11:59:35;;;;;;;0.85;0.70;;;;;;;19.53;30.91;95434.97;4734615;30;20191;-74
2021/05/09 12:02:16;;;;;;;1.13;0.63;;;;;;;19.58;28.42;95434.34;4721937;30;20067;-76
2021/05/09 12:04:42;;;;;;;0.60;0.60;;;;;;;20.13;30.19;95441.31;4729097;30;20510;-78
2021/05/09 12:07:08;;;;;;;0.98;0.63;;;;;;;19.84;30.63;95421.78;4714293;30;20029;-75
2021/05/09 12:09:34;;;;;;;1.17;0.98;;;;;;;19.40;29.58;95433.25;4729077;30;20036;-77
2021/05/09 12:11:59;;;;;;;0.75;0.50;;;;;;;19.52;29.73;95430.78;4728237;30;20420;-80
2021/05/09 12:14:26;;;;;;;1.25;0.80;;;;;;;19.69;29.79;95429.19;4714679;30;20029;-80
2021/05/09 12:16:51;;;;;;;0.77;0.60;;;;;;;19.30;27.53;95419.75;4713770;30;20040;-77
2021/05/09 12:19:17;;;;;;;14.75;1.63;;;;;;;18.95;28.54;95414.13;4714724;30;20039;-79
2021/05/09 12:21:59;;;;;;;0.70;0.60;;;;;;;20.33;29.35;95412.22;4713693;30;20515;-77
2021/05/09 12:24:24;;;;;;;1.60;0.70;;;;;;;20.26;29.16;95417.53;4714839;30;20029;-78
2021/05/09 12:27:02;;;;;;;2.20;0.60;;;;;;;19.59;28.69;95420.16;4714109;30;20040;-80
2021/05/09 12:29:28;;;;;;;5.03;0.98;;;;;;;20.00;27.45;95405.44;4728080;30;20036;-80
2021/05/09 12:31:54;;;;;;;1.95;0.80;;;;;;;19.96;27.86;95411.38;4728594;30;20121;-81
2021/05/09 12:34:26;;;;;;;1.45;0.73;;;;;;;19.90;29.82;95412.25;4727936;30;20454;-80
2021/05/09 12:37:10;;;;;;;1.98;0.70;;;;;;;19.63;29.65;95406.41;4714319;30;20043;-83
2021/05/09 12:39:36;;;;;;;2.00;0.70;;;;;;;19.24;29.71;95409.28;4699667;30;20040;-82
2021/05/09 12:42:02;;;;;;;1.17;0.70;;;;;;;19.76;29.75;95389.72;4727895;30;20033;-82
2021/05/09 12:44:28;;;;;;;2.03;1.30;;;;;;;19.44;29.58;95392.41;4714142;30;20088;-83
2021/05/09 12:46:54;;;;;;;0.93;0.73;;;;;;;19.68;30.23;95396.03;4698854;30;20036;-78
2021/05/09 12:49:20;;;;;;;14.50;1.45;;;;;;;20.16;28.91;95388.31;4713934;30;20522;-76
2021/05/09 12:51:55;;;;;;;1.30;0.68;;;;;;;19.82;29.10;95396.72;4713024;30;20146;-78
2021/05/09 12:54:33;;;;;;;18.35;2.10;;;;;;;20.20;29.41;95401.78;4728526;30;20435;-79
2021/05/09 12:57:21;;;;;;;4.53;0.80;;;;;;;19.46;28.23;95400.88;4713614;30;20059;-80
2021/05/09 13:00:08;;;;;;;0.80;0.60;;;;;;;19.65;30.99;95398.31;4712769;30;20163;-80
2021/05/09 13:02:46;;;;;;;4.90;0.80;;;;;;;20.33;29.87;95407.75;4742875;30;20052;-79
2021/05/09 13:05:16;;;;;;;1.05;0.70;;;;;;;19.64;30.64;95383.56;4730785;30;20036;-81
2021/05/09 13:07:41;;;;;;;2.15;0.77;;;;;;;19.88;30.12;95394.03;4716543;30;20043;-86
2021/05/09 13:10:07;;;;;;;2.00;0.60;;;;;;;19.71;29.54;95386.94;4730879;30;20418;-80
2021/05/09 13:12:33;;;;;;;4.15;0.70;;;;;;;20.20;30.10;95396.53;4730497;30;20437;-79
2021/05/09 13:14:58;;;;;;;1.38;0.63;;;;;;;19.27;29.40;95380.78;4745989;30;20051;-83
2021/05/09 13:17:24;;;;;;;1.02;0.63;;;;;;;19.93;29.60;95386.31;4730046;30;20036;-80
2021/05/09 13:19:52;;;;;;;1.52;1.42;;;;;;;20.01;30.22;95387.84;4731496;30;20040;-81
2021/05/09 13:22:17;;;;;;;1.20;0.70;;;;;;;19.76;29.63;95392.34;4730472;30;20044;-81
2021/05/09 13:24:47;;;;;;;2.08;0.60;;;;;;;19.41;29.23;95379.69;4731105;30;20388;-85
2021/05/09 13:27:13;;;;;;;;;;;;;;;19.76;28.65;95382.63;4731607;30;20028;-79
2021/05/09 13:29:38;;;;;;;3.03;0.60;;;;;;;20.11;28.61;95367.09;4730203;30;19918;-79
2021/05/09 13:32:04;;;;;;;0.73;0.40;;;;;;;19.31;29.77;95362.78;4730765;30;20032;-82
2021/05/09 13:34:30;;;;;;;1.50;0.68;;;;;;;19.62;30.43;95382.97;4730261;30;20063;-80
2021/05/09 13:36:57;;;;;;;2.53;0.70;;;;;;;19.88;29.69;95362.47;4745230;30;20036;-85
2021/05/09 13:39:22;;;;;;;0.85;0.60;;;;;;;19.74;29.00;95383.88;4715350;30;20194;-82
2021/05/09 13:41:48;;;;;;;4.07;0.82;;;;;;;19.76;29.83;95381.81;4728960;30;20671;-81
2021/05/09 13:44:13;;;;;;;4.93;0.73;;;;;;;19.45;29.94;95377.44;4742997;30;20040;-79
2021/05/09 13:46:39;;;;;;;0.60;0.60;;;;;;;20.05;30.20;95375.88;4721868;30;20040;-78
2021/05/09 13:49:04;;;;;;;1.77;0.70;;;;;;;19.40;29.45;95369.41;4744195;30;20043;-85
2021/05/09 13:51:30;;;;;;;0.60;0.50;;;;;;;19.19;29.47;95352.16;4728321;30;20039;-85
2021/05/09 13:53:55;;;;;;;1.05;0.60;;;;;;;19.62;30.90;95385.59;4743471;30;20040;-81
2021/05/09 13:56:21;;;;;;;4.05;0.70;;;;;;;19.20;29.44;95364.25;4715366;30;20036;-84
2021/05/09 13:58:50;;;;;;;0.93;0.63;;;;;;;19.43;29.81;95375.03;4720824;30;20037;-86
2021/05/09 14:01:20;;;;;;;2.97;0.60;;;;;;;19.80;30.00;95369.84;4730048;30;20067;-80
2021/05/09 14:03:46;;;;;;;1.20;0.60;;;;;;;19.53;28.91;95364.03;4719422;30;20033;-78
2021/05/09 14:06:13;;;;;;;2.53;0.55;;;;;;;19.47;30.25;95370.16;4706281;30;20041;-82
2021/05/09 14:08:39;;;;;;;3.90;0.82;;;;;;;19.14;30.78;95370.38;4703710;30;20037;-77
2021/05/09 14:11:07;;;;;;;1.02;0.60;;;;;;;19.64;30.76;95365.97;4713060;30;20037;-73
2021/05/09 14:13:33;;;;;;;1.77;0.80;;;;;;;19.83;31.21;95364.16;4711840;30;20025;-75
2021/05/09 14:15:59;;;;;;;1.30;0.70;;;;;;;19.74;31.22;95361.03;4727695;30;20033;-74
2021/05/09 14:18:24;;;;;;;4.88;0.70;;;;;;;19.58;30.74;95366.81;4711209;30;20470;-77
2021/05/09 14:20:50;;;;;;;1.35;0.63;;;;;;;19.04;30.55;95356.91;4728381;30;20443;-78
2021/05/09 14:23:15;;;;;;;2.15;0.80;;;;;;;19.20;31.03;95358.22;4712371;30;20138;-74
2021/05/09 14:25:41;;;;;;;1.38;0.68;;;;;;;19.15;31.18;95350.16;4712134;30;20048;-74
2021/05/09 14:28:06;;;;;;;2.80;1.45;;;;;;;19.18;31.11;95344.47;4712653;30;20072;-76
2021/05/09 14:30:32;;;;;;;0.70;0.70;;;;;;;19.23;31.20;95366.44;4711825;30;20506;-78
2021/05/09 14:32:58;;;;;;;8.32;0.80;;;;;;;19.36;31.50;95363.72;4726132;30;20103;-79
2021/05/09 14:35:24;;;;;;;2.97;0.65;;;;;;;19.61;31.41;95357.69;4696430;30;20041;-78
2021/05/09 14:37:50;;;;;;;1.02;0.50;;;;;;;19.29;31.26;95352.50;4712626;30;20576;-74
2021/05/09 14:40:15;;;;;;;1.23;0.77;;;;;;;19.13;30.24;95360.09;4726619;30;20104;-77
2021/05/09 14:42:41;;;;;;;0.82;0.63;;;;;;;19.00;29.36;95353.13;4728233;30;20033;-82
2021/05/09 14:45:07;;;;;;;2.33;0.70;;;;;;;19.14;30.65;95359.06;4726601;30;20032;-74
2021/05/09 14:47:32;;;;;;;1.52;0.80;;;;;;;18.80;30.39;95347.19;4696864;30;20516;-79
2021/05/09 14:49:58;;;;;;;1.80;0.80;;;;;;;19.03;31.06;95371.06;4698045;30;20044;-74
2021/05/09 14:52:25;;;;;;;1.42;0.70;;;;;;;19.12;31.11;95371.59;4727333;30;20033;-74
2021/05/09 14:54:50;;;;;;;1.38;0.60;;;;;;;18.96;30.20;95359.78;4726972;30;20074;-81
2021/05/09 14:57:16;;;;;;;2.28;0.60;;;;;;;18.98;30.58;95354.31;4697176;30;20138;-78
2021/05/09 14:59:41;;;;;;;2.90;0.75;;;;;;;18.78;30.30;95360.50;4712431;30;20044;-79
2021/05/09 15:02:07;;;;;;;1.67;0.90;;;;;;;18.82;30.51;95356.44;4740159;30;20063;-76
2021/05/09 15:04:32;;;;;;;1.95;0.85;;;;;;;18.52;32.11;95355.41;4747514;30;20469;-84
2021/05/09 15:06:58;;;;;;;1.23;0.70;;;;;;;18.93;31.91;95365.47;4732842;30;20036;-79
2021/05/09 15:09:23;;;;;;;5.25;0.80;;;;;;;18.94;32.13;95353.97;4746983;30;20043;-77
2021/05/09 15:11:49;;;;;;;1.13;0.68;;;;;;;18.88;33.54;95360.84;4729356;30;20033;-75
2021/05/09 15:14:14;;;;;;;28.25;3.63;;;;;;;18.76;32.63;95362.53;4723298;30;20036;-78
2021/05/09 15:16:40;;;;;;;0.82;0.75;;;;;;;19.02;32.95;95351.06;4732791;30;20040;-75
2021/05/09 15:19:05;;;;;;;2.70;0.70;;;;;;;19.02;32.56;95352.88;4732212;30;20028;-76
2021/05/09 15:21:31;;;;;;;1.23;0.80;;;;;;;18.90;33.83;95350.16;4747423;30;20077;-74
2021/05/09 15:23:56;;;;;;;1.00;0.85;;;;;;;18.97;33.36;95350.91;4747255;30;20071;-77
2021/05/09 15:26:22;;;;;;;0.80;0.70;;;;;;;18.59;32.95;95335.16;4748694;30;20028;-77
2021/05/09 15:28:48;;;;;;;0.75;0.73;;;;;;;18.60;33.25;95333.34;4732126;30;20040;-75
2021/05/09 15:31:13;;;;;;;1.48;0.80;;;;;;;18.61;33.72;95348.91;4732210;30;20024;-77
2021/05/09 15:33:39;;;;;;;2.50;1.40;;;;;;;18.59;34.02;95331.78;4748446;30;20530;-74
2021/05/09 15:36:05;;;;;;;2.05;0.82;;;;;;;18.80;34.61;95336.69;4732132;30;20178;-76
2021/05/09 15:38:30;;;;;;;6.60;1.15;;;;;;;18.46;34.59;95330.00;4732948;30;20499;-76
2021/05/09 15:40:55;;;;;;;2.70;1.10;;;;;;;18.64;34.79;95331.94;4746381;30;20073;-76
2021/05/09 15:43:21;;;;;;;2.10;0.90;;;;;;;18.58;35.30;95319.66;4744000;30;20114;-79
2021/05/09 15:45:46;;;;;;;1.23;0.80;;;;;;;18.56;36.35;95325.09;4729607;30;20051;-75
2021/05/09 15:48:12;;;;;;;2.70;1.10;;;;;;;18.25;35.30;95317.97;4727564;30;20056;-80
2021/05/09 15:50:37;;;;;;;3.67;0.82;;;;;;;18.19;35.31;95326.69;4735664;30;20044;-78
2021/05/09 15:53:03;;;;;;;2.45;0.85;;;;;;;18.01;35.11;95331.81;4724904;30;20554;-76
2021/05/09 15:55:28;;;;;;;0.80;0.70;;;;;;;18.06;36.31;95334.59;4728064;30;20036;-76
2021/05/09 15:57:54;;;;;;;4.10;0.70;;;;;;;18.08;36.03;95326.50;4743530;30;20484;-76
2021/05/09 16:00:20;;;;;;;0.98;0.90;;;;;;;17.89;36.51;95322.94;4722889;30;20758;-78
2021/05/09 16:02:46;;;;;;;1.75;0.70;;;;;;;17.86;36.96;95334.66;4755675;30;20090;-77
2021/05/09 16:05:12;;;;;;;1.85;0.73;;;;;;;17.70;37.10;95340.34;4726534;30;20052;-77
2021/05/09 16:07:37;;;;;;;2.47;0.95;;;;;;;17.63;37.26;95336.09;4714765;30;20763;-75
2021/05/09 16:10:04;;;;;;;2.38;0.70;;;;;;;17.65;38.02;95336.72;4722774;30;20414;-77
2021/05/09 16:12:29;;;;;;;4.82;1.00;;;;;;;17.52;37.67;95339.34;4742417;30;20039;-75
2021/05/09 16:14:59;;;;;;;1.27;0.95;;;;;;;17.38;37.85;95330.69;4742596;30;20418;-75
2021/05/09 16:17:25;;;;;;;1.33;0.70;;;;;;;17.35;38.60;95326.66;4725726;30;20028;-75
2021/05/09 16:19:50;;;;;;;2.60;0.80;;;;;;;17.32;38.63;95331.50;4712883;30;20051;-76
2021/05/09 16:22:16;;;;;;;3.50;0.80;;;;;;;17.17;39.25;95334.31;4723814;30;20105;-76
2021/05/09 16:24:41;;;;;;;1.48;1.00;;;;;;;17.19;38.97;95331.50;4728474;30;20047;-76
2021/05/09 16:27:07;;;;;;;1.42;0.90;;;;;;;17.15;39.26;95331.09;4710857;30;20059;-78
2021/05/09 16:29:32;;;;;;;1.35;0.75;;;;;;;17.17;40.25;95347.41;4745015;30;20043;-76
2021/05/09 16:31:58;;;;;;;1.10;0.75;;;;;;;17.03;39.68;95332.72;4754202;30;20130;-76